Time;durP1;ratioP1;P1;durP2;ratioP2;P2;SDS_P1;SDS_P2;PMS_P1;PMS_P2;Temp;Humidity;BMP_temperature;BMP_pressure;BME280_temperature;BME280_humidity;BME280_pressure;Samples;Min_cycle;Max_cycle;Signal;HPM_P1;HPM_P2
2023/10/23 03:32:30;;;;;;;2.50;1.48;;;5.70;99.90;;;;;;5194208;23;20256;-67
2023/10/23 03:35:00;;;;;;;1.90;1.30;;;5.70;99.90;;;;;;5006296;28;20217;-67
2023/10/23 03:37:26;;;;;;;2.15;1.67;;;5.70;99.90;;;;;;5007325;28;20738;-68
2023/10/23 03:39:53;;;;;;;7.15;1.50;;;5.70;99.90;;;;;;5007889;28;20211;-68
2023/10/23 03:42:21;;;;;;;1.15;1.00;;;5.70;99.90;;;;;;4992232;28;20589;-68
2023/10/23 03:44:48;;;;;;;1.95;1.50;;;5.60;99.90;;;;;;4986314;28;20211;-67
2023/10/23 03:47:15;;;;;;;1.70;1.42;;;5.60;99.90;;;;;;4991789;28;20225;-67
2023/10/23 03:49:43;;;;;;;1.95;1.50;;;5.60;99.90;;;;;;4982237;28;20582;-68
2023/10/23 03:52:10;;;;;;;2.17;1.33;;;5.60;99.90;;;;;;4983751;28;20232;-68
2023/10/23 03:54:38;;;;;;;1.50;1.40;;;5.60;99.90;;;;;;4985318;28;20227;-68
2023/10/23 03:57:05;;;;;;;2.55;1.50;;;5.60;99.90;;;;;;4983888;28;20215;-68
2023/10/23 03:59:31;;;;;;;1.88;1.55;;;5.50;99.90;;;;;;4984137;28;20589;-68
2023/10/23 04:01:58;;;;;;;1.85;1.70;;;5.50;99.90;;;;;;4984769;28;20246;-67
2023/10/23 04:04:25;;;;;;;1.70;1.50;;;5.50;99.90;;;;;;4985396;28;20587;-68
2023/10/23 04:06:53;;;;;;;2.40;1.70;;;5.40;99.90;;;;;;4981992;28;20237;-67
2023/10/23 04:09:19;;;;;;;2.00;1.80;;;5.40;99.90;;;;;;4988008;28;20200;-67
2023/10/23 04:11:46;;;;;;;2.70;1.50;;;5.40;99.90;;;;;;4988748;28;20234;-68
2023/10/23 04:14:13;;;;;;;1.30;1.20;;;5.40;99.90;;;;;;4990605;28;20575;-67
2023/10/23 04:16:39;;;;;;;1.95;1.60;;;5.40;99.90;;;;;;4993015;28;20409;-67
2023/10/23 04:19:06;;;;;;;4.28;1.85;;;5.40;99.90;;;;;;4993235;28;20199;-68
2023/10/23 04:21:38;;;;;;;1.95;1.40;;;5.30;99.90;;;;;;4994475;28;20230;-68
2023/10/23 04:24:09;;;;;;;2.75;1.75;;;5.30;99.90;;;;;;4989105;28;20200;-67
2023/10/23 04:26:36;;;;;;;2.35;1.70;;;5.30;99.90;;;;;;5001651;28;20238;-67
2023/10/23 04:29:03;;;;;;;3.45;2.08;;;5.30;99.90;;;;;;5009475;28;20716;-67
2023/10/23 04:31:30;;;;;;;1.50;1.40;;;5.30;99.90;;;;;;4992316;28;20230;-67
2023/10/23 04:33:56;;;;;;;2.20;1.50;;;5.30;99.90;;;;;;4992543;28;20225;-67
2023/10/23 04:36:23;;;;;;;1.90;1.40;;;5.30;99.90;;;;;;4990266;28;20559;-67
2023/10/23 04:38:50;;;;;;;4.20;2.30;;;5.30;99.90;;;;;;4992289;28;20219;-67
2023/10/23 04:41:20;;;;;;;3.25;1.30;;;5.20;99.90;;;;;;4991799;28;20231;-67
2023/10/23 04:43:46;;;;;;;2.53;1.50;;;5.30;99.90;;;;;;4992798;28;20207;-67
2023/10/23 04:46:13;;;;;;;4.72;1.58;;;5.20;99.90;;;;;;4991560;28;20209;-67
2023/10/23 04:48:40;;;;;;;3.47;1.80;;;5.20;99.90;;;;;;4992726;28;20208;-67
2023/10/23 04:51:06;;;;;;;4.43;1.85;;;5.20;99.90;;;;;;4991759;28;20228;-67
2023/10/23 04:53:33;;;;;;;1.55;1.45;;;5.20;99.90;;;;;;4992758;28;20697;-67
2023/10/23 04:56:00;;;;;;;2.95;1.60;;;5.20;99.90;;;;;;4992340;28;20207;-67
2023/10/23 04:58:29;;;;;;;2.33;1.40;;;5.20;99.90;;;;;;4992146;28;20208;-67
2023/10/23 05:00:56;;;;;;;4.80;1.40;;;5.20;99.90;;;;;;4992783;28;20318;-67
2023/10/23 05:03:22;;;;;;;1.83;1.50;;;5.20;99.90;;;;;;4992279;28;20680;-67
2023/10/23 05:05:49;;;;;;;3.00;1.92;;;5.10;99.90;;;;;;4992520;28;20203;-67
2023/10/23 05:08:16;;;;;;;1.83;1.30;;;5.10;99.90;;;;;;4992365;28;20307;-67
2023/10/23 05:10:43;;;;;;;1.52;1.35;;;5.10;99.90;;;;;;4992981;28;20311;-67
2023/10/23 05:13:09;;;;;;;3.90;1.63;;;5.00;99.90;;;;;;4992161;28;20316;-67
2023/10/23 05:15:38;;;;;;;1.65;1.30;;;5.00;99.90;;;;;;4992447;28;20628;-67
2023/10/23 05:18:04;;;;;;;1.52;1.42;;;5.00;99.90;;;;;;4992687;28;20214;-67
2023/10/23 05:20:34;;;;;;;2.58;1.50;;;5.00;99.90;;;;;;4985537;28;20203;-67
2023/10/23 05:23:03;;;;;;;2.58;1.75;;;5.00;99.90;;;;;;4992491;28;20409;-67
2023/10/23 05:25:29;;;;;;;2.38;1.85;;;5.00;99.90;;;;;;5000108;28;20259;-67
2023/10/23 05:27:56;;;;;;;2.20;2.00;;;5.00;99.90;;;;;;4992760;28;20209;-67
2023/10/23 05:30:23;;;;;;;2.25;1.58;;;5.00;99.90;;;;;;4992639;28;20209;-67
2023/10/23 05:32:51;;;;;;;3.40;1.60;;;5.00;99.90;;;;;;4992890;28;20360;-67
2023/10/23 05:35:17;;;;;;;1.75;1.55;;;4.90;99.90;;;;;;4991950;28;20221;-67
2023/10/23 05:37:44;;;;;;;2.15;1.50;;;4.90;99.90;;;;;;4993068;28;20252;-67
2023/10/23 05:40:12;;;;;;;2.75;1.50;;;4.90;99.90;;;;;;4992861;28;20216;-67
2023/10/23 05:42:38;;;;;;;3.45;2.42;;;4.90;99.90;;;;;;4989445;28;20212;-67
2023/10/23 05:45:06;;;;;;;2.63;2.20;;;4.90;99.90;;;;;;4989934;28;20214;-72
2023/10/23 05:47:33;;;;;;;2.05;1.70;;;4.90;99.90;;;;;;4982662;28;20680;-67
2023/10/23 05:50:01;;;;;;;3.47;1.92;;;4.90;99.90;;;;;;4990510;28;20212;-67
2023/10/23 05:52:27;;;;;;;2.67;2.20;;;4.90;99.90;;;;;;4987181;28;20235;-67
2023/10/23 05:54:54;;;;;;;2.78;2.33;;;4.80;99.90;;;;;;4970291;28;20239;-65
2023/10/23 05:57:21;;;;;;;2.15;1.75;;;4.90;99.90;;;;;;4970408;28;20211;-65
2023/10/23 05:59:47;;;;;;;3.50;1.83;;;4.90;99.90;;;;;;4971052;28;20208;-65
2023/10/23 06:02:15;;;;;;;2.83;1.70;;;4.90;99.90;;;;;;4971054;28;20529;-66
2023/10/23 06:04:43;;;;;;;2.47;1.80;;;4.90;99.90;;;;;;4970827;28;20577;-68
2023/10/23 06:07:12;;;;;;;1.45;1.35;;;4.80;99.90;;;;;;4970696;28;20216;-68
2023/10/23 06:09:38;;;;;;;2.53;2.25;;;4.80;99.90;;;;;;4971036;28;20306;-67
2023/10/23 06:12:06;;;;;;;2.72;2.15;;;4.80;99.90;;;;;;4971449;28;20228;-68
2023/10/23 06:14:32;;;;;;;1.90;1.63;;;4.80;99.90;;;;;;4970580;28;20331;-67
2023/10/23 06:16:59;;;;;;;2.15;1.80;;;4.90;99.90;;;;;;4971415;28;20207;-67
2023/10/23 06:19:26;;;;;;;2.25;2.03;;;4.80;99.90;;;;;;4971688;28;20219;-67
2023/10/23 06:21:53;;;;;;;4.32;1.98;;;4.90;99.90;;;;;;4971414;28;20248;-67
2023/10/23 06:24:21;;;;;;;2.85;2.05;;;4.90;99.90;;;;;;4971048;28;20216;-67
2023/10/23 06:26:48;;;;;;;2.45;2.25;;;4.90;99.90;;;;;;4971261;28;20216;-67
2023/10/23 06:29:14;;;;;;;3.38;2.30;;;4.80;99.90;;;;;;4972069;28;20219;-67
2023/10/23 06:31:41;;;;;;;1.98;1.70;;;4.90;99.90;;;;;;4975711;28;20232;-68
2023/10/23 06:34:08;;;;;;;4.40;2.45;;;4.90;99.90;;;;;;4976157;28;20223;-67
2023/10/23 06:36:35;;;;;;;3.65;1.80;;;4.90;99.90;;;;;;4979368;28;20205;-67
2023/10/23 06:39:02;;;;;;;2.47;1.80;;;4.90;99.90;;;;;;4975025;28;20219;-65
2023/10/23 06:41:32;;;;;;;3.05;1.83;;;4.90;99.90;;;;;;4975813;28;20789;-65
2023/10/23 06:43:58;;;;;;;3.05;2.17;;;5.00;99.90;;;;;;4974710;28;20208;-66
2023/10/23 06:46:25;;;;;;;2.90;2.03;;;5.00;99.90;;;;;;4982700;28;20230;-66
2023/10/23 06:48:52;;;;;;;2.78;2.50;;;5.10;99.90;;;;;;4988008;28;20587;-66
2023/10/23 06:51:20;;;;;;;2.70;2.25;;;5.20;99.90;;;;;;4975495;28;20233;-65
2023/10/23 06:53:48;;;;;;;1.90;1.70;;;5.20;99.90;;;;;;4982282;28;20234;-66
2023/10/23 06:56:21;;;;;;;3.03;2.10;;;5.30;99.90;;;;;;4984362;28;20215;-67
2023/10/23 06:58:52;;;;;;;2.47;2.28;;;5.30;99.90;;;;;;4987013;28;20234;-68
2023/10/23 07:01:22;;;;;;;3.00;2.65;;;5.40;99.90;;;;;;4974415;28;20264;-66
2023/10/23 07:03:50;;;;;;;4.05;2.00;;;5.50;99.90;;;;;;4974145;28;20238;-66
2023/10/23 07:06:17;;;;;;;2.88;2.00;;;5.50;99.90;;;;;;4974702;28;20573;-66
2023/10/23 07:08:47;;;;;;;2.70;2.10;;;5.60;99.90;;;;;;4987005;28;20217;-66
2023/10/23 07:11:15;;;;;;;2.97;2.40;;;5.60;99.90;;;;;;4986842;28;20232;-65
2023/10/23 07:13:43;;;;;;;1.65;1.52;;;5.70;99.90;;;;;;4981460;28;20208;-65
2023/10/23 07:16:12;;;;;;;2.15;1.73;;;5.70;99.90;;;;;;4981680;28;20356;-66
2023/10/23 07:18:40;;;;;;;3.45;2.22;;;5.70;99.90;;;;;;4974728;28;20303;-65
2023/10/23 07:21:06;;;;;;;2.33;2.05;;;5.80;99.90;;;;;;4987016;28;20234;-65
2023/10/23 07:23:35;;;;;;;2.20;1.75;;;5.80;99.90;;;;;;4988003;28;20213;-65
2023/10/23 07:26:07;;;;;;;5.82;2.53;;;5.90;99.90;;;;;;4986291;28;20598;-65
2023/10/23 07:28:35;;;;;;;6.28;2.35;;;6.00;99.90;;;;;;4976450;28;21129;-65
2023/10/23 07:31:04;;;;;;;5.35;2.65;;;6.40;99.90;;;;;;4986440;28;20235;-65
2023/10/23 07:33:35;;;;;;;3.30;2.45;;;6.80;99.90;;;;;;4978739;28;20714;-65
2023/10/23 07:36:03;;;;;;;5.10;2.60;;;7.00;99.90;;;;;;4977109;28;20234;-65
2023/10/23 07:38:31;;;;;;;3.15;2.58;;;7.30;99.90;;;;;;4988784;28;20208;-64
2023/10/23 07:40:58;;;;;;;2.40;2.20;;;7.30;99.90;;;;;;4989115;28;20232;-65
2023/10/23 07:43:27;;;;;;;5.15;2.42;;;7.30;99.90;;;;;;4986714;28;20220;-64
2023/10/23 07:45:54;;;;;;;4.55;2.85;;;7.20;99.90;;;;;;4982087;28;20297;-66
2023/10/23 07:48:23;;;;;;;7.07;2.95;;;7.20;99.90;;;;;;4987012;28;20213;-65
2023/10/23 07:50:52;;;;;;;3.65;2.90;;;7.10;99.90;;;;;;4983295;28;20225;-65
2023/10/23 07:53:20;;;;;;;3.00;2.72;;;7.10;99.90;;;;;;4991113;28;20207;-64
2023/10/23 07:55:47;;;;;;;4.97;2.92;;;7.20;99.90;;;;;;4985541;28;20222;-65
2023/10/23 07:58:15;;;;;;;3.55;2.92;;;7.20;99.90;;;;;;4995275;28;20211;-65
2023/10/23 08:00:42;;;;;;;4.55;2.40;;;7.20;99.90;;;;;;4985737;28;20288;-65
2023/10/23 08:03:10;;;;;;;2.67;2.47;;;7.30;99.90;;;;;;4986011;28;20226;-65
2023/10/23 08:05:38;;;;;;;2.85;2.65;;;7.30;99.90;;;;;;4979176;28;20242;-65
2023/10/23 08:08:07;;;;;;;4.03;3.10;;;7.40;99.90;;;;;;4979029;28;20211;-65
2023/10/23 08:10:35;;;;;;;4.63;3.00;;;7.50;99.90;;;;;;4980819;28;20615;-65
2023/10/23 08:13:02;;;;;;;4.18;3.88;;;7.50;99.90;;;;;;4983151;28;20333;-65
2023/10/23 08:15:32;;;;;;;4.43;3.58;;;7.60;99.90;;;;;;4987996;28;20300;-65
2023/10/23 08:18:00;;;;;;;4.82;3.60;;;7.70;99.90;;;;;;4995141;28;20222;-65
2023/10/23 08:20:27;;;;;;;3.67;3.20;;;7.70;99.90;;;;;;4987228;28;20245;-65
2023/10/23 08:22:54;;;;;;;4.55;3.10;;;7.80;99.90;;;;;;4978656;28;20208;-65
2023/10/23 08:25:22;;;;;;;5.75;3.40;;;7.80;99.90;;;;;;4980354;28;20211;-64
2023/10/23 08:27:48;;;;;;;4.70;3.58;;;7.90;99.90;;;;;;4978827;28;20211;-65
2023/10/23 08:30:15;;;;;;;4.18;3.05;;;8.00;99.90;;;;;;4980137;28;20208;-65
2023/10/23 08:32:42;;;;;;;3.88;3.58;;;8.00;99.90;;;;;;4978872;28;20681;-65
2023/10/23 08:35:09;;;;;;;6.82;3.38;;;8.10;99.90;;;;;;4978202;28;20224;-65
2023/10/23 08:37:35;;;;;;;5.43;3.60;;;8.10;99.90;;;;;;4980065;28;20588;-67
2023/10/23 08:40:06;;;;;;;3.88;3.08;;;8.20;99.90;;;;;;4979212;28;20215;-67
2023/10/23 08:42:34;;;;;;;6.70;3.50;;;8.30;99.90;;;;;;4978932;28;20274;-65
2023/10/23 08:45:02;;;;;;;4.22;3.33;;;8.30;99.90;;;;;;4978611;28;20204;-65
2023/10/23 08:47:29;;;;;;;4.18;3.30;;;8.40;99.90;;;;;;4980462;28;20203;-65
2023/10/23 08:49:59;;;;;;;5.20;3.00;;;8.50;99.90;;;;;;4979072;28;20212;-65
2023/10/23 08:52:30;;;;;;;7.03;3.63;;;8.60;99.90;;;;;;4980899;28;20232;-65
2023/10/23 08:54:58;;;;;;;3.63;3.33;;;8.80;99.90;;;;;;4978854;28;20224;-65
2023/10/23 08:57:26;;;;;;;6.45;3.72;;;8.90;99.90;;;;;;4980416;28;20706;-67
2023/10/23 08:59:54;;;;;;;4.35;3.45;;;9.00;99.90;;;;;;4979013;28;20219;-67
2023/10/23 09:02:21;;;;;;;7.28;3.70;;;9.10;99.90;;;;;;4981116;28;20234;-65
2023/10/23 09:04:48;;;;;;;4.70;3.13;;;9.10;99.90;;;;;;4978521;28;20212;-65
2023/10/23 09:07:15;;;;;;;5.05;3.60;;;9.20;99.90;;;;;;4979969;28;20208;-65
2023/10/23 09:09:41;;;;;;;4.28;3.30;;;9.20;99.90;;;;;;4980003;28;20207;-65
2023/10/23 09:12:08;;;;;;;2.72;2.47;;;9.30;99.90;;;;;;4979386;28;20224;-65
2023/10/23 09:14:36;;;;;;;5.57;3.08;;;9.30;99.90;;;;;;4980704;28;20234;-65
2023/10/23 09:17:04;;;;;;;3.05;2.85;;;9.30;99.90;;;;;;4979208;28;20208;-64
2023/10/23 09:19:34;;;;;;;3.17;2.85;;;9.40;99.90;;;;;;4981565;28;20257;-64
2023/10/23 09:22:01;;;;;;;5.88;3.72;;;9.40;99.90;;;;;;4979707;28;20342;-65
2023/10/23 09:24:28;;;;;;;4.15;3.00;;;9.40;99.90;;;;;;4981802;28;20219;-65
2023/10/23 09:26:54;;;;;;;5.30;2.92;;;9.50;99.90;;;;;;4979220;28;20216;-65
2023/10/23 09:29:25;;;;;;;3.00;2.38;;;9.50;99.90;;;;;;4981619;28;20704;-65
2023/10/23 09:31:52;;;;;;;2.97;2.42;;;9.50;99.90;;;;;;4990551;28;20246;-65
2023/10/23 09:34:21;;;;;;;3.05;2.72;;;9.60;99.90;;;;;;4988952;28;20215;-65
2023/10/23 09:36:50;;;;;;;5.43;2.80;;;9.60;99.90;;;;;;4985421;28;20227;-65
2023/10/23 09:39:18;;;;;;;3.97;3.17;;;9.70;99.90;;;;;;4988039;28;20587;-65
2023/10/23 09:41:46;;;;;;;6.32;2.95;;;9.70;99.90;;;;;;4987051;28;20235;-65
2023/10/23 09:44:15;;;;;;;3.63;3.10;;;9.80;99.90;;;;;;4980509;28;20208;-65
2023/10/23 09:46:42;;;;;;;3.42;3.13;;;9.80;99.90;;;;;;4981365;28;20207;-65
2023/10/23 09:49:10;;;;;;;4.68;2.75;;;9.80;99.90;;;;;;4980090;28;20218;-65
2023/10/23 09:51:40;;;;;;;2.42;2.20;;;9.90;99.90;;;;;;4981767;28;20223;-65
2023/10/23 09:54:16;;;;;;;4.28;2.25;;;9.80;99.90;;;;;;4980126;28;20460;-64
2023/10/23 09:56:49;;;;;;;2.88;2.50;;;9.90;99.90;;;;;;4980808;28;20238;-65
2023/10/23 09:59:18;;;;;;;5.00;2.70;;;9.90;99.90;;;;;;4980788;28;20216;-65
2023/10/23 10:01:48;;;;;;;3.28;2.30;;;10.00;99.90;;;;;;4980788;28;20710;-66
2023/10/23 10:04:22;;;;;;;2.20;2.00;;;10.00;99.90;;;;;;4981138;28;20212;-65
2023/10/23 10:06:54;;;;;;;3.15;2.45;;;10.10;99.90;;;;;;4980138;28;20207;-66
2023/10/23 10:09:24;;;;;;;2.78;2.28;;;10.10;99.90;;;;;;4981154;28;20200;-66
2023/10/23 10:11:54;;;;;;;4.15;2.65;;;10.20;99.90;;;;;;4980006;28;20750;-65
2023/10/23 10:14:22;;;;;;;4.35;2.30;;;10.30;99.90;;;;;;4981508;28;20240;-65
2023/10/23 10:16:49;;;;;;;2.72;2.47;;;10.30;99.90;;;;;;4980138;28;20228;-65
2023/10/23 10:19:17;;;;;;;2.45;2.25;;;10.40;99.90;;;;;;4980996;28;20298;-65
2023/10/23 10:21:52;;;;;;;2.80;2.22;;;10.40;99.90;;;;;;4981227;28;20235;-66
2023/10/23 10:24:21;;;;;;;3.83;2.40;;;10.50;99.90;;;;;;4981407;28;20201;-66
2023/10/23 10:26:49;;;;;;;4.22;2.78;;;10.50;99.90;;;;;;4980923;28;20238;-65
2023/10/23 10:29:17;;;;;;;3.67;2.15;;;10.60;99.90;;;;;;4981316;28;20205;-65
2023/10/23 10:32:05;;;;;;;2.65;1.88;;;10.60;99.90;;;;;;4981213;28;20728;-65
2023/10/23 10:34:33;;;;;;;2.53;1.90;;;10.70;99.90;;;;;;4982902;28;20669;-65
2023/10/23 10:37:04;;;;;;;2.45;2.25;;;10.70;99.90;;;;;;4990770;28;20199;-65
2023/10/23 10:40:08;;;;;;;3.15;2.10;;;10.80;99.90;;;;;;4993434;28;20212;-65
2023/10/23 10:42:39;;;;;;;2.80;2.30;;;10.80;99.90;;;;;;4979921;28;20225;-65
2023/10/23 10:45:17;;;;;;;2.80;2.50;;;10.90;99.90;;;;;;4979389;28;20264;-65
2023/10/23 10:47:49;;;;;;;2.90;2.40;;;10.90;99.90;;;;;;4979838;28;20207;-64
2023/10/23 10:50:32;;;;;;;3.60;2.30;;;11.00;99.90;;;;;;4981340;28;20205;-65
2023/10/23 10:53:04;;;;;;;2.50;2.30;;;11.00;99.90;;;;;;4995478;28;20213;-65
2023/10/23 10:55:32;;;;;;;2.15;1.70;;;11.00;99.90;;;;;;4991062;28;20733;-65
2023/10/23 10:57:59;;;;;;;4.65;2.45;;;11.10;99.90;;;;;;4990880;28;20998;-65
2023/10/23 11:00:29;;;;;;;6.40;2.40;;;11.20;99.90;;;;;;4992851;28;20230;-65
2023/10/23 11:02:56;;;;;;;3.03;2.60;;;11.30;99.90;;;;;;4991326;28;20227;-65
2023/10/23 11:05:23;;;;;;;2.63;2.00;;;11.30;99.90;;;;;;4982753;28;20213;-64
2023/10/23 11:07:51;;;;;;;2.88;2.08;;;11.30;99.90;;;;;;4980846;28;20210;-65
2023/10/23 11:10:20;;;;;;;3.47;2.33;;;11.40;99.90;;;;;;4981321;28;20280;-65
2023/10/23 11:12:47;;;;;;;2.55;2.13;;;11.40;99.90;;;;;;4981604;28;20309;-65
2023/10/23 11:15:15;;;;;;;3.75;2.63;;;11.40;99.90;;;;;;4980803;28;20222;-65
2023/10/23 11:17:41;;;;;;;2.60;2.40;;;11.40;99.90;;;;;;4982301;28;20230;-65
2023/10/23 11:20:10;;;;;;;2.38;2.17;;;11.50;99.90;;;;;;4980011;28;20285;-65
2023/10/23 11:22:39;;;;;;;2.65;2.25;;;11.50;99.90;;;;;;4982351;28;20236;-65
2023/10/23 11:25:08;;;;;;;2.35;2.15;;;11.60;99.90;;;;;;4979555;28;20285;-65
2023/10/23 11:27:37;;;;;;;2.40;2.20;;;11.50;99.90;;;;;;4979851;28;20210;-66
2023/10/23 11:30:04;;;;;;;2.17;1.85;;;11.60;99.90;;;;;;4980228;28;20206;-66
2023/10/23 11:32:32;;;;;;;4.40;2.45;;;11.60;99.90;;;;;;4983095;28;20234;-65
2023/10/23 11:35:03;;;;;;;2.25;1.83;;;11.70;99.90;;;;;;4980300;28;20280;-65
2023/10/23 11:37:33;;;;;;;4.43;2.38;;;11.70;99.90;;;;;;4983450;28;20210;-66
2023/10/23 11:40:05;;;;;;;2.47;2.13;;;11.80;99.90;;;;;;4980541;28;20264;-66
2023/10/23 11:42:33;;;;;;;3.05;2.03;;;11.90;99.90;;;;;;4979447;28;20249;-65
2023/10/23 11:45:01;;;;;;;2.78;2.10;;;11.90;99.90;;;;;;4980428;28;20230;-66
2023/10/23 11:47:28;;;;;;;3.45;2.15;;;11.90;99.90;;;;;;4983573;28;20212;-66
2023/10/23 11:49:54;;;;;;;3.22;2.00;;;12.00;99.90;;;;;;4982279;28;20221;-66
2023/10/23 11:52:22;;;;;;;2.85;1.88;;;12.00;99.90;;;;;;4982593;28;20235;-65
2023/10/23 11:54:49;;;;;;;4.25;1.98;;;12.00;99.90;;;;;;4982020;28;20705;-65
2023/10/23 11:57:19;;;;;;;2.65;2.03;;;12.00;99.90;;;;;;4981504;28;20612;-65
2023/10/23 11:59:48;;;;;;;3.58;2.28;;;12.00;99.90;;;;;;4983232;28;20206;-66
2023/10/23 12:02:16;;;;;;;1.90;1.70;;;12.10;99.90;;;;;;4981646;28;20296;-65
2023/10/23 12:04:43;;;;;;;2.33;1.92;;;12.10;99.90;;;;;;4983446;28;20210;-65
2023/10/23 12:07:10;;;;;;;2.40;1.80;;;12.10;99.90;;;;;;4980440;28;20210;-66
2023/10/23 12:09:37;;;;;;;4.65;2.00;;;12.10;99.90;;;;;;4984205;28;20214;-66
2023/10/23 12:12:05;;;;;;;2.22;2.03;;;12.10;99.90;;;;;;4980742;28;20235;-66
2023/10/23 12:14:31;;;;;;;2.80;1.60;;;12.20;99.90;;;;;;4984128;28;20592;-65
2023/10/23 12:16:58;;;;;;;2.60;2.10;;;12.20;99.90;;;;;;4981334;28;20490;-65
2023/10/23 12:19:26;;;;;;;4.10;2.92;;;12.20;99.90;;;;;;4983143;28;20477;-65
2023/10/23 12:21:53;;;;;;;4.43;2.47;;;12.20;99.90;;;;;;4982609;28;20234;-65
2023/10/23 12:24:20;;;;;;;2.43;1.50;;;12.30;99.90;;;;;;4982534;28;20566;-65
2023/10/23 12:26:47;;;;;;;1.75;1.65;;;12.30;99.90;;;;;;4983575;28;20468;-65
2023/10/23 12:29:15;;;;;;;2.00;1.65;;;12.30;99.90;;;;;;4982084;28;20215;-65
2023/10/23 12:31:43;;;;;;;3.15;1.80;;;12.30;99.90;;;;;;4984414;28;20244;-65
2023/10/23 12:34:11;;;;;;;1.95;1.70;;;12.30;99.90;;;;;;4997605;28;20206;-65
2023/10/23 12:36:43;;;;;;;4.40;2.28;;;12.30;99.90;;;;;;5004747;28;20696;-66
2023/10/23 12:39:11;;;;;;;2.70;2.20;;;12.30;99.90;;;;;;4996107;28;20601;-65
2023/10/23 12:41:38;;;;;;;3.45;2.00;;;12.30;99.90;;;;;;5002377;28;20541;-65
2023/10/23 12:44:07;;;;;;;2.35;1.55;;;12.40;99.90;;;;;;4999230;28;20222;-66
2023/10/23 12:46:37;;;;;;;2.00;1.80;;;12.40;99.90;;;;;;4983137;28;20198;-66
2023/10/23 12:49:07;;;;;;;3.67;2.50;;;12.50;99.90;;;;;;4985723;28;20735;-66
2023/10/23 12:51:39;;;;;;;2.20;1.95;;;12.50;99.90;;;;;;4983602;28;20754;-66
2023/10/23 12:54:11;;;;;;;2.70;1.88;;;12.60;99.90;;;;;;4984647;28;20621;-66
2023/10/23 12:56:41;;;;;;;3.75;2.05;;;12.60;99.90;;;;;;4983468;28;20219;-65
2023/10/23 12:59:08;;;;;;;2.90;2.07;;;12.60;99.90;;;;;;4985342;28;20322;-65
2023/10/23 13:01:39;;;;;;;2.38;2.17;;;12.60;99.90;;;;;;4988415;28;21062;-65
2023/10/23 13:04:06;;;;;;;8.70;2.70;;;12.60;99.90;;;;;;4988867;28;20260;-66
2023/10/23 13:06:34;;;;;;;2.60;2.08;;;12.60;99.90;;;;;;4983278;28;20472;-65
2023/10/23 13:09:02;;;;;;;2.70;2.50;;;12.60;99.90;;;;;;4988681;28;20209;-66
2023/10/23 13:11:39;;;;;;;4.15;3.05;;;12.60;99.90;;;;;;4987968;28;20540;-65
2023/10/23 13:14:07;;;;;;;3.83;2.20;;;12.70;99.90;;;;;;4985770;28;20218;-65
2023/10/23 13:16:38;;;;;;;5.20;2.50;;;12.70;99.90;;;;;;5137850;23;20524;-66
2023/10/23 13:19:06;;;;;;;2.70;1.85;;;12.80;99.90;;;;;;4993071;28;20219;-66
2023/10/23 13:21:37;;;;;;;2.60;2.40;;;12.80;99.90;;;;;;4977876;28;20227;-66
2023/10/23 13:24:06;;;;;;;3.73;2.00;;;12.70;99.90;;;;;;4974264;28;20273;-66
2023/10/23 13:26:37;;;;;;;1.90;1.70;;;12.70;99.90;;;;;;4969126;28;20459;-67
2023/10/23 13:29:09;;;;;;;1.92;1.70;;;12.70;99.90;;;;;;4974823;28;20219;-67
2023/10/23 13:31:36;;;;;;;5.43;2.15;;;12.70;99.90;;;;;;4969588;28;20238;-66
2023/10/23 13:34:04;;;;;;;2.30;2.10;;;12.70;99.90;;;;;;4974224;28;20247;-66
2023/10/23 13:36:32;;;;;;;1.98;1.77;;;12.70;99.90;;;;;;4974167;28;20517;-66
2023/10/23 13:39:03;;;;;;;2.05;1.90;;;12.70;99.90;;;;;;4974201;28;20306;-66
2023/10/23 13:41:31;;;;;;;2.90;2.33;;;12.70;99.90;;;;;;4974469;28;20610;-66
2023/10/23 13:43:59;;;;;;;2.70;1.90;;;12.70;99.90;;;;;;4973562;28;20478;-66
2023/10/23 13:46:26;;;;;;;2.10;1.90;;;12.80;99.90;;;;;;4972871;28;20462;-66
2023/10/23 13:48:53;;;;;;;2.25;2.05;;;12.80;99.90;;;;;;4973915;28;20944;-66
2023/10/23 13:51:19;;;;;;;3.40;2.37;;;12.80;99.90;;;;;;4973571;28;20227;-66
2023/10/23 13:53:46;;;;;;;3.80;2.70;;;12.80;99.90;;;;;;4973685;28;20470;-66
2023/10/23 13:56:13;;;;;;;4.73;3.13;;;12.80;99.90;;;;;;4973246;28;20935;-66
2023/10/23 13:58:39;;;;;;;3.53;2.07;;;12.80;99.90;;;;;;4973543;28;20824;-66
2023/10/23 14:01:07;;;;;;;3.47;2.97;;;12.80;99.90;;;;;;4973103;28;20554;-66
2023/10/23 14:03:34;;;;;;;2.43;1.93;;;12.70;99.90;;;;;;4967948;28;20466;-66
2023/10/23 14:06:01;;;;;;;3.13;2.40;;;12.80;99.90;;;;;;4973173;28;20517;-66
2023/10/23 14:08:29;;;;;;;3.60;2.60;;;12.80;99.90;;;;;;4974095;28;20848;-67
2023/10/23 14:10:55;;;;;;;4.07;2.50;;;12.70;99.90;;;;;;4973005;28;20486;-66
2023/10/23 14:13:22;;;;;;;6.83;2.47;;;12.70;99.90;;;;;;4973313;28;20464;-66
2023/10/23 14:15:50;;;;;;;4.50;3.00;;;12.70;99.90;;;;;;4972944;28;20461;-66
2023/10/23 14:18:18;;;;;;;4.70;2.70;;;12.70;99.90;;;;;;4972951;28;20478;-66
2023/10/23 14:20:45;;;;;;;3.58;2.55;;;12.70;99.90;;;;;;4973300;28;20483;-66
2023/10/23 14:23:12;;;;;;;3.40;3.10;;;12.70;99.90;;;;;;4972493;28;20270;-66
2023/10/23 14:25:39;;;;;;;2.83;2.57;;;12.80;99.90;;;;;;4973095;28;20851;-66
2023/10/23 14:28:06;;;;;;;2.50;2.28;;;12.80;99.90;;;;;;4972970;28;20608;-66
2023/10/23 14:30:33;;;;;;;5.28;2.45;;;12.80;99.90;;;;;;4966267;28;20682;-66
2023/10/23 14:33:00;;;;;;;3.63;2.25;;;12.90;99.90;;;;;;4973065;28;20238;-66
2023/10/23 14:35:31;;;;;;;2.63;2.03;;;12.90;99.90;;;;;;4973050;28;20208;-66
2023/10/23 14:37:59;;;;;;;3.40;2.50;;;12.90;99.90;;;;;;4973791;28;20489;-66
2023/10/23 14:40:27;;;;;;;4.63;3.37;;;12.90;99.90;;;;;;4973218;28;20553;-66
2023/10/23 14:42:56;;;;;;;3.30;2.87;;;12.90;99.90;;;;;;4973554;28;20463;-66
2023/10/23 14:45:24;;;;;;;3.97;2.93;;;13.00;99.90;;;;;;4971426;28;20955;-66
2023/10/23 14:47:52;;;;;;;3.17;2.30;;;12.90;99.90;;;;;;4972951;28;20564;-66
2023/10/23 14:50:19;;;;;;;3.53;3.23;;;12.90;99.90;;;;;;4973465;28;20545;-66
2023/10/23 14:52:50;;;;;;;5.15;2.97;;;12.90;99.90;;;;;;4973802;28;20944;-66
2023/10/23 14:55:18;;;;;;;3.27;2.60;;;12.90;99.90;;;;;;4973214;28;20214;-66
2023/10/23 14:57:46;;;;;;;3.03;2.70;;;12.90;99.90;;;;;;4972871;28;20499;-66
2023/10/23 15:00:15;;;;;;;2.43;2.23;;;12.90;99.90;;;;;;4970706;28;20471;-66
2023/10/23 15:02:44;;;;;;;3.50;2.30;;;12.90;99.90;;;;;;4973205;28;20550;-66
2023/10/23 15:05:12;;;;;;;2.88;2.40;;;12.90;99.90;;;;;;4973404;28;20855;-66
2023/10/23 15:07:40;;;;;;;2.67;2.30;;;12.90;99.90;;;;;;4973265;28;20215;-66
2023/10/23 15:10:10;;;;;;;6.00;2.40;;;12.80;99.90;;;;;;4972862;28;20508;-66
2023/10/23 15:12:38;;;;;;;2.93;2.63;;;12.80;99.90;;;;;;4972889;28;20486;-66
2023/10/23 15:15:09;;;;;;;2.87;2.40;;;12.80;99.90;;;;;;4971206;28;20462;-66
2023/10/23 15:17:38;;;;;;;2.63;2.10;;;12.80;99.90;;;;;;4970976;28;20862;-66
2023/10/23 15:20:06;;;;;;;3.42;2.40;;;12.80;99.90;;;;;;4968820;28;20219;-66
2023/10/23 15:22:32;;;;;;;3.03;2.30;;;12.80;99.90;;;;;;4963334;28;20707;-66
2023/10/23 15:24:59;;;;;;;4.87;2.93;;;12.70;99.90;;;;;;4971687;28;20507;-66
2023/10/23 15:27:28;;;;;;;3.90;3.50;;;12.70;99.90;;;;;;4970928;28;20465;-66
2023/10/23 15:29:55;;;;;;;5.53;4.00;;;12.70;99.90;;;;;;4970653;28;20974;-66
2023/10/23 15:32:22;;;;;;;6.17;4.10;;;12.60;99.90;;;;;;4970633;28;20223;-66
2023/10/23 15:34:49;;;;;;;3.47;3.00;;;12.60;99.90;;;;;;4971680;28;20962;-68
2023/10/23 15:37:19;;;;;;;3.30;2.67;;;12.50;99.90;;;;;;4972669;28;20485;-66
2023/10/23 15:39:46;;;;;;;2.50;2.30;;;12.50;99.90;;;;;;4972428;28;20494;-67
2023/10/23 15:42:12;;;;;;;3.53;2.60;;;12.50;99.90;;;;;;4970832;28;20887;-66
2023/10/23 15:44:42;;;;;;;3.07;2.80;;;12.50;99.90;;;;;;4971275;28;20843;-67
2023/10/23 15:47:09;;;;;;;2.90;2.60;;;12.50;99.90;;;;;;4972621;28;20536;-66
2023/10/23 15:49:36;;;;;;;2.53;2.33;;;12.40;99.90;;;;;;4973061;28;20903;-66
2023/10/23 15:52:03;;;;;;;3.88;2.70;;;12.40;99.90;;;;;;4970593;28;20891;-66
2023/10/23 15:54:30;;;;;;;2.83;2.55;;;12.40;99.90;;;;;;4971214;28;20590;-66
2023/10/23 15:56:57;;;;;;;2.60;2.20;;;12.40;99.90;;;;;;4971611;28;20223;-66
2023/10/23 15:59:24;;;;;;;3.63;2.40;;;12.40;99.90;;;;;;4971407;28;20240;-67
2023/10/23 16:01:52;;;;;;;3.00;2.13;;;12.30;99.90;;;;;;4971589;28;20673;-67
2023/10/23 16:04:18;;;;;;;2.78;2.58;;;12.30;99.90;;;;;;4971464;28;20218;-67
2023/10/23 16:06:45;;;;;;;2.43;2.20;;;12.20;99.90;;;;;;4971735;28;20214;-66
2023/10/23 16:09:12;;;;;;;2.90;2.70;;;12.20;99.90;;;;;;4974070;28;20465;-67
2023/10/23 16:11:39;;;;;;;5.55;2.58;;;12.20;99.90;;;;;;4975347;28;20227;-67
2023/10/23 16:14:06;;;;;;;3.75;2.40;;;12.20;99.90;;;;;;4975277;28;20306;-67
2023/10/23 16:16:32;;;;;;;2.97;2.67;;;12.20;99.90;;;;;;4975191;28;20754;-67
2023/10/23 16:19:00;;;;;;;3.30;2.80;;;12.20;99.90;;;;;;4975354;28;20211;-67
2023/10/23 16:21:27;;;;;;;3.50;2.70;;;12.20;99.90;;;;;;4975064;28;20765;-67
2023/10/23 16:23:54;;;;;;;2.75;2.55;;;12.20;99.90;;;;;;4971898;28;20225;-66
2023/10/23 16:26:21;;;;;;;3.65;2.65;;;12.10;99.90;;;;;;4974367;28;20219;-67
2023/10/23 16:28:47;;;;;;;3.58;3.03;;;12.00;99.90;;;;;;4974793;28;20219;-67